Time;durP1;ratioP1;P1;durP2;ratioP2;P2;SDS_P1;SDS_P2;PMS_P1;PMS_P2;Temp;Humidity;BMP_temperature;BMP_pressure;BME280_temperature;BME280_humidity;BME280_pressure;Samples;Min_cycle;Max_cycle;Signal;HPM_P1;HPM_P2
2023/06/23 00:00:44;;;;;;;0.10;0.10;;;;;;;15.37;100.00;96373.00;5037304;28;20037;-78
2023/06/23 00:03:33;;;;;;;0.10;0.10;;;;;;;15.32;100.00;96363.84;5036913;28;20123;-78
2023/06/23 00:06:19;;;;;;;0.10;0.10;;;;;;;15.33;100.00;96376.28;5038810;28;20045;-79
2023/06/23 00:09:13;;;;;;;0.10;0.10;;;;;;;15.37;100.00;96348.75;5040499;28;20037;-79
2023/06/23 00:11:59;;;;;;;0.10;0.10;;;;;;;15.33;100.00;96327.75;5037859;28;20106;-79
2023/06/23 00:14:45;;;;;;;0.10;0.10;;;;;;;15.32;100.00;96342.28;5037372;28;20041;-79
2023/06/23 00:17:31;;;;;;;0.10;0.10;;;;;;;15.29;100.00;96334.78;5037831;28;20115;-80
2023/06/23 00:20:17;;;;;;;0.10;0.10;;;;;;;15.22;100.00;96323.50;5023051;28;20036;-79
2023/06/23 00:23:02;;;;;;;0.10;0.10;;;;;;;15.23;100.00;96346.69;5035223;28;20123;-79
2023/06/23 00:25:48;;;;;;;0.10;0.10;;;;;;;15.12;100.00;96334.38;5007972;28;20041;-78
2023/06/23 00:28:34;;;;;;;0.10;0.10;;;;;;;15.13;100.00;96373.72;5038758;28;20367;-79
2023/06/23 00:31:20;;;;;;;0.17;0.17;;;;;;;15.00;100.00;96350.06;5021071;28;20045;-78
2023/06/23 00:34:06;;;;;;;0.10;0.10;;;;;;;14.94;100.00;96392.41;5038479;28;20098;-78
2023/06/23 00:36:52;;;;;;;0.10;0.10;;;;;;;14.98;100.00;96363.03;5036921;28;20788;-78
2023/06/23 00:39:38;;;;;;;0.10;0.10;;;;;;;14.95;100.00;96379.75;5016519;28;20108;-78
2023/06/23 00:42:24;;;;;;;0.10;0.10;;;;;;;14.79;100.00;96405.16;5036997;28;20506;-78
2023/06/23 00:45:10;;;;;;;0.10;0.10;;;;;;;14.61;100.00;96393.09;5019853;28;20040;-78
2023/06/23 00:47:56;;;;;;;0.10;0.10;;;;;;;14.36;100.00;96402.03;5018335;28;20028;-78
2023/06/23 00:50:43;;;;;;;0.10;0.10;;;;;;;14.32;100.00;96411.72;5037265;28;20067;-78
2023/06/23 00:53:29;;;;;;;0.10;0.10;;;;;;;14.32;100.00;96393.72;5011208;28;20483;-79
2023/06/23 00:56:16;;;;;;;0.10;0.10;;;;;;;14.36;100.00;96424.38;5035533;28;20086;-78
2023/06/23 00:59:02;;;;;;;0.10;0.10;;;;;;;14.34;100.00;96415.78;5039138;28;20166;-78
2023/06/23 01:01:48;;;;;;;0.10;0.10;;;;;;;14.30;100.00;96409.31;5036464;28;20477;-79
2023/06/23 01:04:34;;;;;;;0.00;0.00;;;;;;;14.26;100.00;96410.16;5033693;28;20095;-78
2023/06/23 01:07:36;;;;;;;0.10;0.10;;;;;;;14.17;100.00;96410.69;5032053;28;20046;-78
2023/06/23 01:10:32;;;;;;;0.00;0.00;;;;;;;14.18;100.00;96412.31;5016560;28;20136;-77
2023/06/23 01:13:43;;;;;;;0.05;0.05;;;;;;;14.29;100.00;96418.47;5018840;28;20041;-77
2023/06/23 01:16:33;;;;;;;0.10;0.10;;;;;;;14.21;100.00;96409.06;5014977;28;20147;-76
2023/06/23 01:19:53;;;;;;;0.10;0.10;;;;;;;14.34;100.00;96420.34;5038022;28;20367;-78
2023/06/23 01:22:56;;;;;;;0.00;0.00;;;;;;;14.19;100.00;96456.97;5013657;28;20518;-78
2023/06/23 01:26:09;;;;;;;0.10;0.10;;;;;;;14.19;100.00;96446.22;5036893;28;20044;-79
2023/06/23 01:29:00;;;;;;;0.05;0.05;;;;;;;14.15;100.00;96431.66;5037651;28;20037;-77
2023/06/23 01:32:27;;;;;;;0.10;0.10;;;;;;;14.08;100.00;96449.16;5034403;28;20103;-79
2023/06/23 01:35:21;;;;;;;0.10;0.10;;;;;;;14.01;100.00;96452.16;4989498;28;20049;-79
2023/06/23 01:38:16;;;;;;;0.10;0.10;;;;;;;13.98;100.00;96438.44;5022886;28;20073;-77
2023/06/23 01:41:08;;;;;;;0.10;0.10;;;;;;;14.02;100.00;96445.69;5022536;28;20057;-77
2023/06/23 01:43:56;;;;;;;0.10;0.10;;;;;;;13.97;100.00;96431.44;5019869;28;20472;-78
2023/06/23 01:46:49;;;;;;;0.10;0.10;;;;;;;14.04;100.00;96458.88;5019614;28;20222;-78
2023/06/23 01:49:38;;;;;;;0.10;0.10;;;;;;;14.07;100.00;96453.75;5023875;28;20116;-75
2023/06/23 01:52:26;;;;;;;0.10;0.10;;;;;;;14.12;100.00;96461.03;5039570;28;20047;-76
2023/06/23 01:55:13;;;;;;;0.10;0.10;;;;;;;14.22;100.00;96461.81;5037655;28;20529;-74
2023/06/23 01:58:01;;;;;;;0.10;0.10;;;;;;;14.17;100.00;96464.53;5040570;28;20602;-75
2023/06/23 02:00:48;;;;;;;0.13;0.13;;;;;;;14.18;100.00;96468.00;5026701;28;20056;-75
2023/06/23 02:03:35;;;;;;;0.10;0.10;;;;;;;14.17;100.00;96472.59;5036042;28;20056;-74
2023/06/23 02:06:23;;;;;;;0.10;0.10;;;;;;;14.18;100.00;96478.78;5039859;28;20510;-75
2023/06/23 02:09:15;;;;;;;0.10;0.10;;;;;;;14.10;100.00;96479.31;5021008;28;20037;-76
2023/06/23 02:12:06;;;;;;;0.10;0.10;;;;;;;14.08;100.00;96487.63;5023454;28;20362;-75
2023/06/23 02:14:53;;;;;;;0.10;0.10;;;;;;;14.08;100.00;96498.41;5021847;28;20343;-75
2023/06/23 02:17:41;;;;;;;0.10;0.10;;;;;;;14.08;100.00;96493.03;5036647;28;20076;-77
2023/06/23 02:20:28;;;;;;;0.00;0.00;;;;;;;14.08;100.00;96503.78;5021633;28;20308;-77
2023/06/23 02:23:15;;;;;;;0.10;0.10;;;;;;;14.11;100.00;96507.84;5020232;28;20099;-77
2023/06/23 02:26:04;;;;;;;0.10;0.10;;;;;;;14.06;100.00;96505.94;5038775;28;20135;-76
2023/06/23 02:28:51;;;;;;;0.10;0.10;;;;;;;13.91;100.00;96497.88;5039535;28;20049;-76
2023/06/23 02:31:36;;;;;;;0.10;0.10;;;;;;;13.92;100.00;96508.34;5035993;28;20055;-76
2023/06/23 02:34:22;;;;;;;0.10;0.10;;;;;;;13.99;100.00;96516.16;5024135;28;20132;-75
2023/06/23 02:37:09;;;;;;;0.10;0.10;;;;;;;13.98;100.00;96522.63;5036596;28;20106;-77
2023/06/23 02:40:11;;;;;;;0.10;0.10;;;;;;;14.05;100.00;96517.78;5038828;28;20131;-77
2023/06/23 02:43:09;;;;;;;0.10;0.10;;;;;;;14.05;100.00;96541.19;5031706;28;20142;-76
2023/06/23 02:45:59;;;;;;;0.10;0.10;;;;;;;13.91;100.00;96539.03;5020679;28;20036;-76
2023/06/23 02:48:48;;;;;;;0.10;0.10;;;;;;;13.90;100.00;96526.66;5019106;28;20048;-77
2023/06/23 02:51:38;;;;;;;0.10;0.10;;;;;;;13.90;100.00;96531.22;5036640;28;20079;-78
2023/06/23 02:54:25;;;;;;;0.00;0.00;;;;;;;13.94;100.00;96537.69;5040482;28;20194;-77
2023/06/23 02:57:13;;;;;;;0.00;0.00;;;;;;;13.98;100.00;96557.59;5019078;28;20036;-77
2023/06/23 03:00:01;;;;;;;0.10;0.10;;;;;;;13.90;100.00;96545.47;5038360;28;20056;-77
2023/06/23 03:02:51;;;;;;;0.08;0.08;;;;;;;13.99;100.00;96567.28;5006564;28;20661;-77
2023/06/23 03:05:37;;;;;;;0.20;0.20;;;;;;;13.94;100.00;96543.09;5037434;28;20049;-78
2023/06/23 03:08:25;;;;;;;0.10;0.10;;;;;;;13.99;100.00;96561.91;5020666;28;20132;-78
2023/06/23 03:11:11;;;;;;;0.10;0.10;;;;;;;13.94;100.00;96578.06;5019518;28;20033;-78
2023/06/23 03:13:58;;;;;;;0.10;0.10;;;;;;;13.93;100.00;96546.84;5018719;28;20261;-78
2023/06/23 03:16:48;;;;;;;0.10;0.10;;;;;;;13.91;100.00;96557.03;5020712;28;20159;-78
2023/06/23 03:19:43;;;;;;;0.13;0.13;;;;;;;13.96;100.00;96551.69;5035844;28;20295;-79
2023/06/23 03:22:38;;;;;;;0.20;0.20;;;;;;;13.97;100.00;96566.75;5019747;28;20336;-77
2023/06/23 03:25:26;;;;;;;0.10;0.10;;;;;;;13.93;100.00;96555.72;5021402;28;20071;-78
2023/06/23 03:28:25;;;;;;;0.10;0.10;;;;;;;13.92;100.00;96567.53;5018760;28;20045;-78
2023/06/23 03:31:13;;;;;;;0.10;0.10;;;;;;;13.96;100.00;96572.41;5038647;28;20308;-77
2023/06/23 03:34:01;;;;;;;0.10;0.10;;;;;;;13.92;100.00;96586.38;5017353;28;20732;-78
2023/06/23 03:36:49;;;;;;;0.10;0.10;;;;;;;13.95;100.00;96576.97;5034509;28;20048;-77
2023/06/23 03:39:38;;;;;;;0.10;0.10;;;;;;;13.84;100.00;96589.56;5036729;28;20554;-78
2023/06/23 03:42:25;;;;;;;0.05;0.05;;;;;;;13.88;100.00;96603.31;5035943;28;20048;-78
2023/06/23 03:45:13;;;;;;;0.10;0.10;;;;;;;13.91;100.00;96605.47;5036505;28;20334;-78
2023/06/23 03:48:06;;;;;;;0.10;0.10;;;;;;;13.91;100.00;96611.66;5034381;28;20063;-77
2023/06/23 03:50:55;;;;;;;0.10;0.10;;;;;;;13.90;100.00;96614.63;5037207;28;20044;-77
2023/06/23 03:53:44;;;;;;;0.10;0.10;;;;;;;13.98;100.00;96632.13;5033992;28;20244;-79
2023/06/23 03:56:34;;;;;;;0.10;0.10;;;;;;;13.90;100.00;96636.13;5038043;28;20041;-78
2023/06/23 03:59:23;;;;;;;0.10;0.10;;;;;;;13.97;100.00;96647.44;5034901;28;20041;-78
2023/06/23 04:02:12;;;;;;;0.10;0.10;;;;;;;14.01;100.00;96648.56;5036280;28;20832;-77
2023/06/23 04:05:00;;;;;;;0.10;0.10;;;;;;;13.92;100.00;96647.44;5037640;28;20063;-77
2023/06/23 04:07:48;;;;;;;0.10;0.10;;;;;;;13.99;100.00;96655.25;5037346;28;20106;-78
2023/06/23 04:10:35;;;;;;;0.10;0.10;;;;;;;13.96;100.00;96671.94;5035396;28;20550;-78
2023/06/23 04:13:22;;;;;;;0.10;0.10;;;;;;;13.98;100.00;96659.03;5039620;28;20398;-79
2023/06/23 04:16:09;;;;;;;0.10;0.10;;;;;;;13.98;100.00;96675.97;5038991;28;20044;-79
2023/06/23 04:18:59;;;;;;;0.10;0.10;;;;;;;13.94;100.00;96659.56;5036228;28;20483;-78
2023/06/23 04:21:46;;;;;;;0.10;0.10;;;;;;;13.94;100.00;96677.59;5036808;28;20052;-78
2023/06/23 04:24:35;;;;;;;0.10;0.10;;;;;;;13.86;100.00;96684.28;5020622;28;20559;-77
2023/06/23 04:27:22;;;;;;;0.10;0.10;;;;;;;13.90;100.00;96684.56;5036569;28;20044;-78
2023/06/23 04:30:09;;;;;;;0.10;0.10;;;;;;;13.89;100.00;96680.25;5019352;28;20033;-78
2023/06/23 04:32:55;;;;;;;0.10;0.10;;;;;;;13.87;100.00;96679.72;5022373;28;20059;-78
2023/06/23 04:35:43;;;;;;;0.10;0.10;;;;;;;13.89;100.00;96691.81;5020330;28;20092;-77
2023/06/23 04:38:32;;;;;;;0.10;0.10;;;;;;;13.87;100.00;96685.91;5039854;28;20080;-77
2023/06/23 04:41:22;;;;;;;0.10;0.10;;;;;;;13.90;100.00;96701.50;5041298;28;20727;-77
2023/06/23 04:44:11;;;;;;;0.10;0.10;;;;;;;13.88;100.00;96692.88;5017184;28;20126;-78
2023/06/23 04:47:01;;;;;;;0.10;0.10;;;;;;;13.86;100.00;96702.31;5037853;28;20445;-78
2023/06/23 04:49:54;;;;;;;0.10;0.10;;;;;;;13.88;100.00;96709.03;5016573;28;20537;-78
2023/06/23 04:52:45;;;;;;;0.10;0.10;;;;;;;13.85;100.00;96703.34;5038437;28;20098;-78
2023/06/23 04:55:33;;;;;;;0.20;0.20;;;;;;;13.89;100.00;96726.78;5040866;28;20604;-78
2023/06/23 04:58:21;;;;;;;0.10;0.10;;;;;;;13.94;100.00;96721.44;5036457;28;20044;-79
2023/06/23 05:01:10;;;;;;;0.10;0.10;;;;;;;13.99;100.00;96735.97;5040343;28;20037;-77
2023/06/23 05:04:00;;;;;;;0.10;0.10;;;;;;;13.97;100.00;96744.31;5036795;28;20046;-77
2023/06/23 05:06:47;;;;;;;0.10;0.10;;;;;;;13.99;100.00;96749.41;5038357;28;20403;-77
2023/06/23 05:09:35;;;;;;;0.10;0.10;;;;;;;14.03;100.00;96748.63;5044984;28;20043;-78
2023/06/23 05:12:23;;;;;;;0.20;0.20;;;;;;;14.09;100.00;96755.66;5024434;28;20045;-77
2023/06/23 05:15:10;;;;;;;0.10;0.10;;;;;;;14.26;100.00;96755.44;5022394;28;20418;-78
2023/06/23 05:18:00;;;;;;;0.10;0.10;;;;;;;14.39;100.00;96751.44;5042365;28;20037;-78
2023/06/23 05:20:48;;;;;;;0.10;0.10;;;;;;;14.36;100.00;96747.41;5042105;28;20048;-77
2023/06/23 05:23:36;;;;;;;0.10;0.10;;;;;;;14.26;100.00;96760.03;5042498;28;20032;-79
2023/06/23 05:26:25;;;;;;;0.10;0.10;;;;;;;14.18;100.00;96756.75;5043592;28;20106;-77
2023/06/23 05:29:15;;;;;;;0.10;0.10;;;;;;;14.14;100.00;96760.25;5041883;28;20040;-78
2023/06/23 05:32:04;;;;;;;0.10;0.10;;;;;;;14.10;100.00;96754.59;5024010;28;20138;-79
2023/06/23 05:34:53;;;;;;;0.10;0.10;;;;;;;14.12;100.00;96773.16;5040807;28;20718;-78
2023/06/23 05:37:42;;;;;;;0.10;0.10;;;;;;;14.10;100.00;96769.94;5040949;28;20471;-78
2023/06/23 05:40:28;;;;;;;0.10;0.10;;;;;;;14.12;100.00;96792.78;5042097;28;20554;-77
2023/06/23 05:43:14;;;;;;;0.10;0.10;;;;;;;14.11;100.00;96783.09;5040755;28;20094;-78
2023/06/23 05:46:06;;;;;;;0.10;0.10;;;;;;;14.10;100.00;96796.84;5039793;28;20056;-79
2023/06/23 05:48:56;;;;;;;0.10;0.10;;;;;;;14.19;100.00;96793.38;5011059;28;20044;-79
2023/06/23 05:51:47;;;;;;;0.10;0.10;;;;;;;14.13;100.00;96802.47;5040105;28;20121;-80
2023/06/23 05:54:38;;;;;;;0.10;0.10;;;;;;;14.17;100.00;96798.22;5008290;28;20116;-79
2023/06/23 05:57:35;;;;;;;0.10;0.10;;;;;;;14.15;100.00;96786.06;5022847;28;20053;-80
2023/06/23 06:00:24;;;;;;;0.10;0.10;;;;;;;14.14;100.00;96777.19;5023896;28;20075;-80
2023/06/23 06:03:14;;;;;;;0.10;0.10;;;;;;;14.23;100.00;96797.13;5024012;28;20052;-80
2023/06/23 06:06:03;;;;;;;0.10;0.10;;;;;;;14.12;100.00;96808.94;5010838;28;20045;-79
2023/06/23 06:08:52;;;;;;;0.10;0.10;;;;;;;14.06;100.00;96801.91;5025410;28;20068;-79
2023/06/23 06:11:40;;;;;;;0.10;0.10;;;;;;;14.16;100.00;96822.66;5011718;28;20049;-80
2023/06/23 06:14:30;;;;;;;0.10;0.10;;;;;;;14.16;100.00;96820.81;5025713;28;20569;-80
2023/06/23 06:17:18;;;;;;;0.10;0.10;;;;;;;14.29;100.00;96826.78;5013745;28;20464;-80
2023/06/23 06:20:05;;;;;;;0.20;0.20;;;;;;;14.37;100.00;96829.78;5034273;28;20041;-79
2023/06/23 06:22:55;;;;;;;0.10;0.10;;;;;;;14.52;100.00;96844.41;5024967;28;20918;-79
2023/06/23 06:25:43;;;;;;;0.10;0.10;;;;;;;14.53;100.00;96870.25;5022383;28;20342;-80
2023/06/23 06:28:31;;;;;;;0.10;0.10;;;;;;;14.70;100.00;96860.06;5024898;28;20040;-79
2023/06/23 06:31:19;;;;;;;0.20;0.20;;;;;;;14.80;100.00;96864.69;5011901;28;20426;-79
2023/06/23 06:34:06;;;;;;;0.10;0.10;;;;;;;14.83;100.00;96848.00;4989886;28;20199;-78
2023/06/23 06:36:55;;;;;;;0.10;0.10;;;;;;;14.91;100.00;96859.06;5004374;28;20032;-80
2023/06/23 06:39:42;;;;;;;0.10;0.10;;;;;;;14.87;100.00;96865.25;5006230;28;20049;-79
2023/06/23 06:42:28;;;;;;;0.10;0.10;;;;;;;14.97;100.00;96884.94;4989731;28;20053;-78
2023/06/23 06:45:14;;;;;;;0.10;0.10;;;;;;;14.96;100.00;96874.44;5006988;28;20427;-78
2023/06/23 06:48:04;;;;;;;0.20;0.20;;;;;;;14.95;100.00;96864.75;5003576;28;20683;-79
2023/06/23 06:50:51;;;;;;;0.10;0.10;;;;;;;15.20;100.00;96880.94;5022416;28;20256;-78
2023/06/23 06:53:37;;;;;;;0.10;0.10;;;;;;;15.33;100.00;96885.03;5017125;28;20404;-79
2023/06/23 06:56:23;;;;;;;0.10;0.10;;;;;;;15.76;100.00;96889.09;5005899;28;20072;-78
2023/06/23 06:59:09;;;;;;;0.10;0.10;;;;;;;15.72;100.00;96869.13;5005077;28;20426;-78
2023/06/23 07:01:56;;;;;;;0.10;0.10;;;;;;;15.67;100.00;96890.72;5017254;28;20045;-78
2023/06/23 07:04:43;;;;;;;0.20;0.20;;;;;;;15.71;100.00;96886.38;5022389;28;20759;-78
2023/06/23 07:07:32;;;;;;;0.10;0.10;;;;;;;16.03;100.00;96901.47;5005121;28;20251;-78
2023/06/23 07:10:18;;;;;;;0.10;0.10;;;;;;;16.15;100.00;96907.38;5002935;28;20130;-78
2023/06/23 07:13:04;;;;;;;0.10;0.10;;;;;;;15.97;100.00;96884.47;5002994;28;20425;-78
2023/06/23 07:15:50;;;;;;;0.10;0.10;;;;;;;15.96;100.00;96914.44;5001466;28;20622;-79
2023/06/23 07:18:36;;;;;;;0.10;0.10;;;;;;;15.78;100.00;96930.09;5005763;28;20052;-78
2023/06/23 07:21:23;;;;;;;0.10;0.10;;;;;;;15.90;100.00;96923.63;5021128;28;20063;-79
2023/06/23 07:24:09;;;;;;;0.10;0.10;;;;;;;15.91;100.00;96933.34;4990103;28;20305;-79
2023/06/23 07:26:55;;;;;;;0.10;0.10;;;;;;;16.00;100.00;96937.91;4999509;28;20392;-79
2023/06/23 07:29:42;;;;;;;0.10;0.10;;;;;;;15.99;100.00;96925.50;5018703;28;20411;-79
2023/06/23 07:32:28;;;;;;;0.10;0.10;;;;;;;16.02;100.00;96940.34;5012064;28;20068;-79
2023/06/23 07:35:14;;;;;;;0.10;0.10;;;;;;;16.26;100.00;96954.88;5025676;28;20079;-79
2023/06/23 07:38:00;;;;;;;0.10;0.10;;;;;;;16.78;100.00;96958.31;5038585;28;20108;-79
2023/06/23 07:40:45;;;;;;;0.10;0.10;;;;;;;16.88;100.00;96955.56;5012537;28;20124;-78
2023/06/23 07:43:31;;;;;;;0.15;0.15;;;;;;;16.80;100.00;96970.44;5025015;28;20036;-79
2023/06/23 07:46:17;;;;;;;0.10;0.10;;;;;;;16.69;100.00;96972.38;5022231;28;20482;-79
2023/06/23 07:49:04;;;;;;;0.10;0.10;;;;;;;16.85;100.00;96978.53;5010431;28;20044;-80
2023/06/23 07:51:50;;;;;;;0.15;0.15;;;;;;;16.80;100.00;96994.75;5035833;28;20048;-79
2023/06/23 07:54:36;;;;;;;0.03;0.03;;;;;;;16.70;100.00;97000.22;5006706;28;20037;-81
2023/06/23 07:57:22;;;;;;;0.10;0.10;;;;;;;17.05;100.00;97001.19;5021054;28;20032;-80
2023/06/23 08:00:09;;;;;;;0.20;0.20;;;;;;;17.16;100.00;97008.97;5006744;28;20239;-80
2023/06/23 08:02:59;;;;;;;;;;;;;;;16.75;100.00;97018.31;5025765;28;20131;-80
2023/06/23 08:05:45;;;;;;;0.10;0.10;;;;;;;17.27;100.00;97017.84;5025381;28;19927;-79
2023/06/23 08:08:33;;;;;;;0.10;0.10;;;;;;;17.59;100.00;97022.84;5021281;28;20037;-78
2023/06/23 08:11:19;;;;;;;0.10;0.10;;;;;;;17.65;100.00;97020.88;5010526;28;20033;-79
2023/06/23 08:14:05;;;;;;;0.10;0.10;;;;;;;17.79;100.00;97032.75;5021340;28;20206;-79
2023/06/23 08:16:50;;;;;;;0.10;0.10;;;;;;;17.88;100.00;97028.34;5023544;28;20112;-79
2023/06/23 08:19:37;;;;;;;0.10;0.10;;;;;;;17.50;100.00;97017.19;5019703;28;20029;-79
2023/06/23 08:22:23;;;;;;;0.10;0.10;;;;;;;17.59;100.00;97030.13;5020520;28;20049;-79
2023/06/23 08:25:09;;;;;;;0.20;0.20;;;;;;;17.77;100.00;97035.75;5023864;28;20033;-80
2023/06/23 08:27:55;;;;;;;0.13;0.13;;;;;;;18.17;100.00;97041.97;5023770;28;20102;-80
2023/06/23 08:30:41;;;;;;;0.10;0.10;;;;;;;18.79;100.00;97044.97;4975915;28;20159;-78
2023/06/23 08:33:27;;;;;;;0.10;0.10;;;;;;;18.67;100.00;97050.75;5037972;28;20414;-79
2023/06/23 08:36:13;;;;;;;0.20;0.20;;;;;;;18.53;100.00;97055.22;5024048;28;20120;-79
2023/06/23 08:38:59;;;;;;;0.10;0.10;;;;;;;18.75;100.00;97054.75;5015033;28;20626;-79
2023/06/23 08:41:48;;;;;;;0.10;0.10;;;;;;;18.59;100.00;97067.59;5010927;28;20087;-79
2023/06/23 08:44:42;;;;;;;0.10;0.10;;;;;;;18.74;100.00;97062.06;5034269;28;20644;-78
2023/06/23 08:47:30;;;;;;;0.10;0.10;;;;;;;19.27;100.00;97083.75;5019752;28;20908;-79
2023/06/23 08:50:16;;;;;;;0.10;0.10;;;;;;;19.55;100.00;97075.84;5033514;28;20626;-78
2023/06/23 08:53:05;;;;;;;0.00;0.00;;;;;;;20.04;100.00;97091.75;5019298;28;20036;-80
2023/06/23 08:55:53;;;;;;;0.10;0.10;;;;;;;19.07;100.00;97089.44;5006619;28;20099;-79
2023/06/23 08:58:40;;;;;;;0.10;0.10;;;;;;;19.01;100.00;97104.94;5032102;28;20129;-79
2023/06/23 09:01:26;;;;;;;0.10;0.10;;;;;;;18.82;100.00;97107.53;5033318;28;20714;-80
2023/06/23 09:04:15;;;;;;;0.10;0.10;;;;;;;18.86;100.00;97102.38;5015281;28;20056;-79
2023/06/23 09:07:02;;;;;;;0.17;0.17;;;;;;;19.14;100.00;97100.72;5032326;28;20032;-80
2023/06/23 09:09:48;;;;;;;0.10;0.10;;;;;;;19.30;100.00;97098.63;5034260;28;20045;-80
2023/06/23 09:12:34;;;;;;;0.10;0.10;;;;;;;19.13;100.00;97099.09;5004592;28;20926;-80
2023/06/23 09:15:20;;;;;;;0.13;0.13;;;;;;;19.08;100.00;97094.56;5019247;28;20498;-79
2023/06/23 09:18:08;;;;;;;0.20;0.20;;;;;;;19.21;100.00;97106.59;5034884;28;20040;-79
2023/06/23 09:20:54;;;;;;;0.10;0.10;;;;;;;19.65;100.00;97111.81;5014707;28;20052;-80
2023/06/23 09:23:58;;;;;;;0.15;0.15;;;;;;;19.68;100.00;97111.22;5018388;28;20068;-80
2023/06/23 09:26:47;;;;;;;0.10;0.10;;;;;;;19.82;100.00;97127.63;5015123;28;20064;-80
2023/06/23 09:29:34;;;;;;;0.15;0.15;;;;;;;19.61;100.00;97128.97;5017106;28;20048;-80
2023/06/23 09:32:29;;;;;;;0.13;0.13;;;;;;;20.17;100.00;97115.47;5018506;28;20683;-79
2023/06/23 09:35:18;;;;;;;0.20;0.20;;;;;;;20.65;100.00;97106.34;5013337;28;20072;-80
2023/06/23 09:38:04;;;;;;;0.10;0.10;;;;;;;20.36;100.00;97120.09;5002429;28;20559;-80
2023/06/23 09:41:13;;;;;;;0.10;0.10;;;;;;;19.81;100.00;97136.88;5017918;28;20809;-79
2023/06/23 09:43:59;;;;;;;0.10;0.10;;;;;;;19.12;100.00;97147.13;5019862;28;20603;-79
2023/06/23 09:46:45;;;;;;;0.10;0.10;;;;;;;18.58;100.00;97139.16;5019868;28;20044;-79
2023/06/23 09:49:42;;;;;;;0.10;0.10;;;;;;;18.90;100.00;97149.50;5034889;28;20600;-79
2023/06/23 09:52:28;;;;;;;0.17;0.17;;;;;;;19.19;100.00;97133.22;5016561;28;20040;-79
2023/06/23 09:55:16;;;;;;;0.17;0.17;;;;;;;19.82;100.00;97148.53;5038665;28;20036;-79
2023/06/23 09:58:08;;;;;;;0.10;0.10;;;;;;;20.00;100.00;97129.56;5036959;28;20051;-80
2023/06/23 10:01:06;;;;;;;0.10;0.10;;;;;;;20.42;100.00;97137.94;5021182;28;20053;-79
2023/06/23 10:03:55;;;;;;;0.10;0.10;;;;;;;20.67;100.00;97134.03;5017867;28;20048;-79
2023/06/23 10:06:41;;;;;;;0.10;0.10;;;;;;;20.63;100.00;97136.56;5018670;28;20049;-79
2023/06/23 10:09:27;;;;;;;0.10;0.10;;;;;;;20.72;100.00;97128.53;5017705;28;20147;-79
2023/06/23 10:12:13;;;;;;;0.10;0.10;;;;;;;21.18;100.00;97136.69;5019807;28;20044;-79
2023/06/23 10:14:59;;;;;;;0.20;0.20;;;;;;;21.55;100.00;97141.16;5018648;28;20045;-79
2023/06/23 10:17:46;;;;;;;0.10;0.10;;;;;;;20.94;100.00;97152.38;5020701;28;20574;-79
2023/06/23 10:20:32;;;;;;;0.10;0.10;;;;;;;20.84;100.00;97165.00;5021228;28;20033;-79
2023/06/23 10:23:20;;;;;;;0.10;0.10;;;;;;;20.70;100.00;97164.19;5021043;28;20045;-79
2023/06/23 10:26:06;;;;;;;0.10;0.10;;;;;;;20.36;100.00;97149.97;5017554;28;20037;-80
2023/06/23 10:28:53;;;;;;;0.20;0.20;;;;;;;21.39;100.00;97165.16;5009461;28;20048;-79
2023/06/23 10:31:41;;;;;;;0.10;0.10;;;;;;;21.38;100.00;97165.47;5020634;28;20043;-79
2023/06/23 10:34:29;;;;;;;0.10;0.10;;;;;;;21.71;100.00;97179.81;5019197;28;20053;-80
2023/06/23 10:37:16;;;;;;;0.15;0.15;;;;;;;22.24;100.00;97173.81;5036427;28;20056;-80
2023/06/23 10:40:04;;;;;;;0.10;0.10;;;;;;;22.03;100.00;97170.72;5021438;28;20124;-79
2023/06/23 10:42:52;;;;;;;0.10;0.10;;;;;;;21.38;100.00;97170.91;5016600;28;20049;-80
2023/06/23 10:45:39;;;;;;;0.10;0.10;;;;;;;21.50;100.00;97189.50;5016397;28;20060;-79
2023/06/23 10:48:26;;;;;;;0.10;0.10;;;;;;;21.00;100.00;97184.59;5016335;28;20041;-79
2023/06/23 10:51:12;;;;;;;0.00;0.00;;;;;;;20.46;100.00;97188.72;5020314;28;20036;-79
2023/06/23 10:54:01;;;;;;;0.10;0.10;;;;;;;20.40;100.00;97202.66;5017295;28;20049;-78
2023/06/23 10:56:50;;;;;;;0.10;0.10;;;;;;;20.55;100.00;97197.03;5016189;28;20492;-78
2023/06/23 11:00:05;;;;;;;0.15;0.15;;;;;;;21.42;100.00;97194.53;5032460;28;20071;-79
2023/06/23 11:02:52;;;;;;;0.20;0.20;;;;;;;21.93;100.00;97201.69;5019350;28;20479;-80
2023/06/23 11:05:42;;;;;;;0.10;0.10;;;;;;;22.72;99.79;97200.56;5020376;28;20114;-80
2023/06/23 11:08:39;;;;;;;0.10;0.10;;;;;;;23.55;98.77;97187.31;5022052;28;20053;-79
2023/06/23 11:11:34;;;;;;;0.00;0.00;;;;;;;24.13;92.43;97194.47;5023573;28;20060;-79
2023/06/23 11:14:23;;;;;;;0.20;0.20;;;;;;;24.00;87.01;97203.59;5016152;28;20225;-79
2023/06/23 11:17:13;;;;;;;0.20;0.20;;;;;;;23.29;91.67;97201.66;5004344;28;20049;-79
2023/06/23 11:19:59;;;;;;;0.20;0.20;;;;;;;23.96;89.66;97188.94;5003145;28;20734;-79
2023/06/23 11:22:59;;;;;;;0.10;0.10;;;;;;;24.09;92.54;97216.16;5000833;28;20041;-78
2023/06/23 11:25:51;;;;;;;0.10;0.10;;;;;;;23.89;91.06;97209.34;5017123;28;20080;-79
2023/06/23 11:28:40;;;;;;;0.20;0.20;;;;;;;25.29;85.81;97202.88;5018388;28;20454;-79
2023/06/23 11:31:27;;;;;;;0.10;0.10;;;;;;;24.04;92.91;97208.09;5030744;28;20803;-78
2023/06/23 11:34:13;;;;;;;0.20;0.20;;;;;;;25.76;83.26;97206.50;5004665;28;20049;-79
2023/06/23 11:36:59;;;;;;;0.10;0.10;;;;;;;27.10;75.33;97216.81;5007107;28;20040;-79
2023/06/23 11:39:47;;;;;;;0.13;0.13;;;;;;;28.42;60.37;97213.84;5020203;28;20123;-79
2023/06/23 11:42:33;;;;;;;0.20;0.20;;;;;;;30.95;47.73;97205.84;5005962;28;20141;-79
2023/06/23 11:45:21;;;;;;;0.10;0.10;;;;;;;30.95;38.90;97214.13;5008677;28;20082;-79
2023/06/23 11:48:07;;;;;;;0.20;0.20;;;;;;;31.67;42.39;97208.84;5016662;28;20048;-79
2023/06/23 11:50:57;;;;;;;0.20;0.20;;;;;;;32.65;36.04;97208.06;5006795;28;20749;-79
2023/06/23 11:53:47;;;;;;;;;;;;;;;28.21;58.73;97229.63;5017484;28;20102;-79
2023/06/23 11:56:33;;;;;;;0.00;0.00;;;;;;;29.75;49.77;97207.38;5003135;28;19925;-79
2023/06/23 11:59:19;;;;;;;0.10;0.10;;;;;;;32.57;37.21;97230.50;5021114;28;20048;-79
2023/06/23 12:02:06;;;;;;;0.10;0.10;;;;;;;34.47;33.78;97220.34;5005481;28;20052;-79
2023/06/23 12:04:56;;;;;;;0.10;0.10;;;;;;;35.78;28.25;97220.13;5002897;28;20047;-79
2023/06/23 12:07:42;;;;;;;0.00;0.00;;;;;;;30.61;40.21;97227.59;5014568;28;20084;-79
2023/06/23 12:10:30;;;;;;;0.10;0.10;;;;;;;30.13;45.20;97221.38;5018132;28;20047;-79
2023/06/23 12:13:19;;;;;;;0.08;0.08;;;;;;;28.03;56.00;97227.13;5017861;28;20118;-80
2023/06/23 12:16:08;;;;;;;0.00;0.00;;;;;;;26.47;73.31;97222.28;5027880;28;20376;-80
2023/06/23 12:18:54;;;;;;;0.00;0.00;;;;;;;25.53;79.43;97241.53;5020354;28;20067;-80
2023/06/23 12:21:41;;;;;;;0.00;0.00;;;;;;;24.74;86.29;97237.19;5021579;28;20048;-80
2023/06/23 12:24:30;;;;;;;0.10;0.10;;;;;;;24.51;86.86;97240.38;5013597;28;20878;-80
2023/06/23 12:27:17;;;;;;;0.17;0.17;;;;;;;27.92;72.33;97238.91;5030572;28;20049;-80
2023/06/23 12:30:17;;;;;;;0.20;0.20;;;;;;;34.09;35.54;97222.44;5020533;28;20175;-80
2023/06/23 12:33:03;;;;;;;0.00;0.00;;;;;;;32.59;41.50;97222.63;5013603;28;20568;-81
2023/06/23 12:36:00;;;;;;;0.10;0.10;;;;;;;27.56;65.54;97221.19;5006352;28;20786;-80
2023/06/23 12:38:52;;;;;;;0.10;0.10;;;;;;;25.14;81.95;97234.34;5012870;28;20040;-80
2023/06/23 12:41:40;;;;;;;0.10;0.10;;;;;;;24.30;88.03;97243.72;5015303;28;20053;-80
2023/06/23 12:44:27;;;;;;;0.10;0.10;;;;;;;24.19;88.25;97247.84;5019443;28;20367;-80
2023/06/23 12:47:13;;;;;;;0.10;0.10;;;;;;;25.49;80.79;97234.25;5026890;28;20044;-81
2023/06/23 12:50:06;;;;;;;0.20;0.20;;;;;;;30.03;55.61;97230.13;5019427;28;20176;-80
2023/06/23 12:52:52;;;;;;;0.10;0.10;;;;;;;33.98;36.78;97236.19;5002141;28;20045;-79
2023/06/23 12:55:38;;;;;;;0.30;0.20;;;;;;;35.87;28.43;97220.53;5019405;28;20153;-79
2023/06/23 12:58:24;;;;;;;0.10;0.10;;;;;;;34.39;33.12;97227.78;5018476;28;20116;-79
2023/06/23 13:01:10;;;;;;;0.00;0.00;;;;;;;32.80;36.77;97227.66;5016559;28;20349;-78
2023/06/23 13:03:56;;;;;;;0.10;0.10;;;;;;;34.39;31.22;97216.69;5004656;28;20051;-79
2023/06/23 13:06:42;;;;;;;0.20;0.20;;;;;;;36.32;28.63;97217.38;5006848;28;20075;-79